sensor_id;sensor_type;location;lat;lon;timestamp;P1;durP1;ratioP1;P2;durP2;ratioP2
33840;SDS011;20142;28.494;-16.312;2022-07-29T00:04:13;8.50;;;1.58;;
33840;SDS011;20142;28.494;-16.312;2022-07-29T00:09:15;13.50;;;1.45;;
33840;SDS011;20142;28.494;-16.312;2022-07-29T00:14:17;15.25;;;1.40;;
33840;SDS011;20142;28.494;-16.312;2022-07-29T00:19:19;8.20;;;1.17;;
33840;SDS011;20142;28.494;-16.312;2022-07-29T00:24:21;5.45;;;1.33;;
33840;SDS011;20142;28.494;-16.312;2022-07-29T00:29:23;11.43;;;1.20;;
33840;SDS011;20142;28.494;-16.312;2022-07-29T00:34:25;7.47;;;1.20;;
33840;SDS011;20142;28.494;-16.312;2022-07-29T00:39:45;6.43;;;1.25;;
33840;SDS011;20142;28.494;-16.312;2022-07-29T00:44:47;6.30;;;1.13;;
33840;SDS011;20142;28.494;-16.312;2022-07-29T00:49:49;5.03;;;1.00;;
33840;SDS011;20142;28.494;-16.312;2022-07-29T00:54:51;11.25;;;1.52;;
33840;SDS011;20142;28.494;-16.312;2022-07-29T00:59:53;13.32;;;1.77;;
33840;SDS011;20142;28.494;-16.312;2022-07-29T01:04:56;5.75;;;1.25;;
33840;SDS011;20142;28.494;-16.312;2022-07-29T01:09:58;10.13;;;1.38;;
33840;SDS011;20142;28.494;-16.312;2022-07-29T01:15:01;5.78;;;1.40;;
33840;SDS011;20142;28.494;-16.312;2022-07-29T01:20:10;6.50;;;1.33;;
33840;SDS011;20142;28.494;-16.312;2022-07-29T01:25:40;8.38;;;1.38;;
33840;SDS011;20142;28.494;-16.312;2022-07-29T01:31:03;3.78;;;0.98;;
33840;SDS011;20142;28.494;-16.312;2022-07-29T01:36:07;5.85;;;1.20;;
33840;SDS011;20142;28.494;-16.312;2022-07-29T01:41:12;10.00;;;1.10;;
33840;SDS011;20142;28.494;-16.312;2022-07-29T01:46:21;7.85;;;1.05;;
33840;SDS011;20142;28.494;-16.312;2022-07-29T01:51:57;7.45;;;0.75;;
33840;SDS011;20142;28.494;-16.312;2022-07-29T01:57:14;4.93;;;0.98;;
33840;SDS011;20142;28.494;-16.312;2022-07-29T02:02:18;9.55;;;1.55;;
33840;SDS011;20142;28.494;-16.312;2022-07-29T02:07:21;7.07;;;0.90;;
33840;SDS011;20142;28.494;-16.312;2022-07-29T02:12:23;7.63;;;1.15;;
33840;SDS011;20142;28.494;-16.312;2022-07-29T02:17:33;6.47;;;0.85;;
33840;SDS011;20142;28.494;-16.312;2022-07-29T02:22:44;6.57;;;1.27;;
33840;SDS011;20142;28.494;-16.312;2022-07-29T02:27:48;3.03;;;0.40;;
33840;SDS011;20142;28.494;-16.312;2022-07-29T02:32:51;0.73;;;0.17;;
33840;SDS011;20142;28.494;-16.312;2022-07-29T02:37:54;3.22;;;0.40;;
33840;SDS011;20142;28.494;-16.312;2022-07-29T02:43:15;5.65;;;0.63;;
33840;SDS011;20142;28.494;-16.312;2022-07-29T02:48:19;3.20;;;0.70;;
33840;SDS011;20142;28.494;-16.312;2022-07-29T02:53:23;3.78;;;0.60;;
33840;SDS011;20142;28.494;-16.312;2022-07-29T02:58:33;4.82;;;0.45;;
33840;SDS011;20142;28.494;-16.312;2022-07-29T03:03:38;2.95;;;0.40;;
33840;SDS011;20142;28.494;-16.312;2022-07-29T03:08:41;6.35;;;0.70;;
33840;SDS011;20142;28.494;-16.312;2022-07-29T03:13:44;7.03;;;0.80;;
33840;SDS011;20142;28.494;-16.312;2022-07-29T03:18:46;4.30;;;0.70;;
33840;SDS011;20142;28.494;-16.312;2022-07-29T03:23:48;1.30;;;0.40;;
33840;SDS011;20142;28.494;-16.312;2022-07-29T03:28:50;2.47;;;0.20;;
33840;SDS011;20142;28.494;-16.312;2022-07-29T03:33:52;0.73;;;0.20;;
33840;SDS011;20142;28.494;-16.312;2022-07-29T03:38:54;1.20;;;0.25;;
33840;SDS011;20142;28.494;-16.312;2022-07-29T03:43:56;1.23;;;0.10;;
33840;SDS011;20142;28.494;-16.312;2022-07-29T03:49:00;1.25;;;0.25;;
33840;SDS011;20142;28.494;-16.312;2022-07-29T03:54:03;2.30;;;0.40;;
33840;SDS011;20142;28.494;-16.312;2022-07-29T03:59:06;1.98;;;0.30;;
33840;SDS011;20142;28.494;-16.312;2022-07-29T04:04:10;2.13;;;0.50;;
33840;SDS011;20142;28.494;-16.312;2022-07-29T04:09:12;2.10;;;0.70;;
33840;SDS011;20142;28.494;-16.312;2022-07-29T04:14:14;4.38;;;0.63;;
33840;SDS011;20142;28.494;-16.312;2022-07-29T04:19:16;6.05;;;0.90;;
33840;SDS011;20142;28.494;-16.312;2022-07-29T04:24:18;5.18;;;0.90;;
33840;SDS011;20142;28.494;-16.312;2022-07-29T04:29:19;3.25;;;0.82;;
33840;SDS011;20142;28.494;-16.312;2022-07-29T04:34:21;8.02;;;1.10;;
33840;SDS011;20142;28.494;-16.312;2022-07-29T04:39:24;5.38;;;1.00;;
33840;SDS011;20142;28.494;-16.312;2022-07-29T04:44:26;9.80;;;1.35;;
33840;SDS011;20142;28.494;-16.312;2022-07-29T04:49:29;4.65;;;0.80;;
33840;SDS011;20142;28.494;-16.312;2022-07-29T04:54:31;4.68;;;1.30;;
33840;SDS011;20142;28.494;-16.312;2022-07-29T04:59:33;7.75;;;1.52;;
33840;SDS011;20142;28.494;-16.312;2022-07-29T05:04:35;7.47;;;1.55;;
33840;SDS011;20142;28.494;-16.312;2022-07-29T05:09:37;5.63;;;0.70;;
33840;SDS011;20142;28.494;-16.312;2022-07-29T05:14:39;16.20;;;1.40;;
33840;SDS011;20142;28.494;-16.312;2022-07-29T05:19:41;15.65;;;1.38;;
33840;SDS011;20142;28.494;-16.312;2022-07-29T05:24:42;5.63;;;1.25;;
33840;SDS011;20142;28.494;-16.312;2022-07-29T05:29:44;5.40;;;1.00;;
33840;SDS011;20142;28.494;-16.312;2022-07-29T05:34:46;5.95;;;1.20;;
33840;SDS011;20142;28.494;-16.312;2022-07-29T05:39:48;3.45;;;0.93;;
33840;SDS011;20142;28.494;-16.312;2022-07-29T05:44:50;8.35;;;1.30;;
33840;SDS011;20142;28.494;-16.312;2022-07-29T05:49:52;7.15;;;1.73;;
33840;SDS011;20142;28.494;-16.312;2022-07-29T05:54:54;6.20;;;1.80;;
33840;SDS011;20142;28.494;-16.312;2022-07-29T05:59:57;7.65;;;1.33;;
33840;SDS011;20142;28.494;-16.312;2022-07-29T06:04:59;5.40;;;1.73;;
33840;SDS011;20142;28.494;-16.312;2022-07-29T06:10:01;9.27;;;1.50;;
33840;SDS011;20142;28.494;-16.312;2022-07-29T06:15:03;4.15;;;1.20;;
33840;SDS011;20142;28.494;-16.312;2022-07-29T06:20:05;6.85;;;1.15;;
33840;SDS011;20142;28.494;-16.312;2022-07-29T06:25:07;3.58;;;0.98;;
33840;SDS011;20142;28.494;-16.312;2022-07-29T06:30:09;4.18;;;1.15;;
33840;SDS011;20142;28.494;-16.312;2022-07-29T06:35:12;4.35;;;1.30;;
33840;SDS011;20142;28.494;-16.312;2022-07-29T06:40:14;6.88;;;1.52;;
33840;SDS011;20142;28.494;-16.312;2022-07-29T06:45:34;5.47;;;1.13;;
33840;SDS011;20142;28.494;-16.312;2022-07-29T06:50:36;4.50;;;1.27;;
33840;SDS011;20142;28.494;-16.312;2022-07-29T06:55:38;4.05;;;1.05;;
33840;SDS011;20142;28.494;-16.312;2022-07-29T07:00:40;6.38;;;1.13;;
33840;SDS011;20142;28.494;-16.312;2022-07-29T07:05:42;6.55;;;1.52;;
33840;SDS011;20142;28.494;-16.312;2022-07-29T07:10:45;7.07;;;2.25;;
33840;SDS011;20142;28.494;-16.312;2022-07-29T07:15:47;8.07;;;1.73;;
33840;SDS011;20142;28.494;-16.312;2022-07-29T07:20:49;9.85;;;2.05;;
33840;SDS011;20142;28.494;-16.312;2022-07-29T07:25:51;11.20;;;2.42;;
33840;SDS011;20142;28.494;-16.312;2022-07-29T07:30:53;13.55;;;2.30;;
33840;SDS011;20142;28.494;-16.312;2022-07-29T07:35:55;6.05;;;1.42;;
33840;SDS011;20142;28.494;-16.312;2022-07-29T07:40:58;4.70;;;1.55;;
33840;SDS011;20142;28.494;-16.312;2022-07-29T07:46:00;8.05;;;2.20;;
33840;SDS011;20142;28.494;-16.312;2022-07-29T07:51:02;12.55;;;1.55;;
33840;SDS011;20142;28.494;-16.312;2022-07-29T07:56:04;6.57;;;1.20;;
33840;SDS011;20142;28.494;-16.312;2022-07-29T08:01:08;4.18;;;0.98;;
33840;SDS011;20142;28.494;-16.312;2022-07-29T08:06:10;3.05;;;0.63;;
33840;SDS011;20142;28.494;-16.312;2022-07-29T08:11:12;1.95;;;0.70;;
33840;SDS011;20142;28.494;-16.312;2022-07-29T08:16:15;4.80;;;0.30;;
33840;SDS011;20142;28.494;-16.312;2022-07-29T08:21:17;2.15;;;0.50;;
33840;SDS011;20142;28.494;-16.312;2022-07-29T08:26:19;3.78;;;0.60;;
33840;SDS011;20142;28.494;-16.312;2022-07-29T08:31:23;7.55;;;0.85;;
33840;SDS011;20142;28.494;-16.312;2022-07-29T08:36:25;4.45;;;1.20;;
33840;SDS011;20142;28.494;-16.312;2022-07-29T08:41:27;6.18;;;0.88;;
33840;SDS011;20142;28.494;-16.312;2022-07-29T08:46:29;2.65;;;0.90;;
33840;SDS011;20142;28.494;-16.312;2022-07-29T08:51:31;6.18;;;0.80;;
33840;SDS011;20142;28.494;-16.312;2022-07-29T08:56:36;8.27;;;0.85;;
33840;SDS011;20142;28.494;-16.312;2022-07-29T09:01:38;8.50;;;1.20;;
33840;SDS011;20142;28.494;-16.312;2022-07-29T09:06:46;5.45;;;1.00;;
33840;SDS011;20142;28.494;-16.312;2022-07-29T09:11:50;2.65;;;0.40;;
33840;SDS011;20142;28.494;-16.312;2022-07-29T09:16:54;3.17;;;0.22;;
33840;SDS011;20142;28.494;-16.312;2022-07-29T09:21:57;4.15;;;0.25;;
33840;SDS011;20142;28.494;-16.312;2022-07-29T09:27:01;1.17;;;0.20;;
33840;SDS011;20142;28.494;-16.312;2022-07-29T09:32:05;0.30;;;0.10;;
33840;SDS011;20142;28.494;-16.312;2022-07-29T09:37:10;0.65;;;0.10;;
33840;SDS011;20142;28.494;-16.312;2022-07-29T09:42:12;0.40;;;0.10;;
33840;SDS011;20142;28.494;-16.312;2022-07-29T09:47:14;0.40;;;0.10;;
33840;SDS011;20142;28.494;-16.312;2022-07-29T09:52:17;1.50;;;0.10;;
33840;SDS011;20142;28.494;-16.312;2022-07-29T09:57:28;1.65;;;0.30;;
33840;SDS011;20142;28.494;-16.312;2022-07-29T10:02:31;1.35;;;0.20;;
33840;SDS011;20142;28.494;-16.312;2022-07-29T10:07:45;2.88;;;0.73;;
33840;SDS011;20142;28.494;-16.312;2022-07-29T10:12:55;3.60;;;0.40;;
33840;SDS011;20142;28.494;-16.312;2022-07-29T10:17:59;2.95;;;0.40;;
33840;SDS011;20142;28.494;-16.312;2022-07-29T10:23:01;3.03;;;0.60;;
33840;SDS011;20142;28.494;-16.312;2022-07-29T10:28:03;3.03;;;0.60;;
33840;SDS011;20142;28.494;-16.312;2022-07-29T10:43:33;6.03;;;1.13;;
33840;SDS011;20142;28.494;-16.312;2022-07-29T10:54:06;6.25;;;1.02;;
33840;SDS011;20142;28.494;-16.312;2022-07-29T11:05:21;4.40;;;0.90;;
33840;SDS011;20142;28.494;-16.312;2022-07-29T11:15:14;4.60;;;0.52;;
33840;SDS011;20142;28.494;-16.312;2022-07-29T11:25:33;3.42;;;0.60;;
33840;SDS011;20142;28.494;-16.312;2022-07-29T11:30:48;5.22;;;0.80;;
33840;SDS011;20142;28.494;-16.312;2022-07-29T11:36:12;4.93;;;0.63;;
33840;SDS011;20142;28.494;-16.312;2022-07-29T11:41:27;4.47;;;0.75;;
33840;SDS011;20142;28.494;-16.312;2022-07-29T11:46:48;8.65;;;1.45;;
33840;SDS011;20142;28.494;-16.312;2022-07-29T11:51:55;4.88;;;0.50;;
33840;SDS011;20142;28.494;-16.312;2022-07-29T11:56:58;5.43;;;0.80;;
33840;SDS011;20142;28.494;-16.312;2022-07-29T12:02:00;5.38;;;0.50;;
33840;SDS011;20142;28.494;-16.312;2022-07-29T12:07:02;3.67;;;0.55;;
33840;SDS011;20142;28.494;-16.312;2022-07-29T12:12:04;1.98;;;0.20;;
33840;SDS011;20142;28.494;-16.312;2022-07-29T12:17:06;2.83;;;0.32;;
33840;SDS011;20142;28.494;-16.312;2022-07-29T12:22:08;0.38;;;0.10;;
33840;SDS011;20142;28.494;-16.312;2022-07-29T12:27:11;0.60;;;0.05;;
33840;SDS011;20142;28.494;-16.312;2022-07-29T12:32:13;0.63;;;0.30;;
33840;SDS011;20142;28.494;-16.312;2022-07-29T12:37:15;0.28;;;0.15;;
33840;SDS011;20142;28.494;-16.312;2022-07-29T12:42:18;1.10;;;0.40;;
33840;SDS011;20142;28.494;-16.312;2022-07-29T12:47:20;1.73;;;0.45;;
33840;SDS011;20142;28.494;-16.312;2022-07-29T12:52:29;3.03;;;0.50;;
33840;SDS011;20142;28.494;-16.312;2022-07-29T12:57:44;3.42;;;0.60;;
33840;SDS011;20142;28.494;-16.312;2022-07-29T13:02:57;4.93;;;0.63;;
33840;SDS011;20142;28.494;-16.312;2022-07-29T13:08:13;4.47;;;0.75;;
33840;SDS011;20142;28.494;-16.312;2022-07-29T13:13:15;5.93;;;1.20;;
33840;SDS011;20142;28.494;-16.312;2022-07-29T13:18:27;5.18;;;1.00;;
33840;SDS011;20142;28.494;-16.312;2022-07-29T13:23:30;5.47;;;1.30;;
33840;SDS011;20142;28.494;-16.312;2022-07-29T13:28:32;9.52;;;1.42;;
33840;SDS011;20142;28.494;-16.312;2022-07-29T13:33:34;15.63;;;2.20;;
33840;SDS011;20142;28.494;-16.312;2022-07-29T13:38:36;10.63;;;2.05;;
33840;SDS011;20142;28.494;-16.312;2022-07-29T13:43:38;10.32;;;2.40;;
33840;SDS011;20142;28.494;-16.312;2022-07-29T13:48:40;8.57;;;2.28;;
33840;SDS011;20142;28.494;-16.312;2022-07-29T13:53:42;8.88;;;1.70;;
33840;SDS011;20142;28.494;-16.312;2022-07-29T13:58:44;10.68;;;1.90;;
33840;SDS011;20142;28.494;-16.312;2022-07-29T14:03:46;7.20;;;1.75;;
33840;SDS011;20142;28.494;-16.312;2022-07-29T14:08:48;9.95;;;2.05;;
33840;SDS011;20142;28.494;-16.312;2022-07-29T14:13:49;7.65;;;1.98;;
33840;SDS011;20142;28.494;-16.312;2022-07-29T14:18:51;12.20;;;1.95;;
33840;SDS011;20142;28.494;-16.312;2022-07-29T14:23:53;11.75;;;2.47;;
33840;SDS011;20142;28.494;-16.312;2022-07-29T14:28:55;12.40;;;2.28;;
33840;SDS011;20142;28.494;-16.312;2022-07-29T14:33:57;14.35;;;2.78;;
33840;SDS011;20142;28.494;-16.312;2022-07-29T14:38:59;14.68;;;2.85;;
33840;SDS011;20142;28.494;-16.312;2022-07-29T14:44:01;18.90;;;2.95;;
33840;SDS011;20142;28.494;-16.312;2022-07-29T14:49:03;14.88;;;2.33;;
33840;SDS011;20142;28.494;-16.312;2022-07-29T14:54:06;10.73;;;2.40;;
33840;SDS011;20142;28.494;-16.312;2022-07-29T14:59:08;15.55;;;3.22;;
33840;SDS011;20142;28.494;-16.312;2022-07-29T15:04:10;14.07;;;3.42;;
33840;SDS011;20142;28.494;-16.312;2022-07-29T15:09:11;17.55;;;3.60;;
33840;SDS011;20142;28.494;-16.312;2022-07-29T15:14:13;25.30;;;3.83;;
33840;SDS011;20142;28.494;-16.312;2022-07-29T15:19:15;15.52;;;3.60;;
33840;SDS011;20142;28.494;-16.312;2022-07-29T15:24:17;14.98;;;2.88;;
33840;SDS011;20142;28.494;-16.312;2022-07-29T15:29:19;17.33;;;3.88;;
33840;SDS011;20142;28.494;-16.312;2022-07-29T15:34:21;21.08;;;4.00;;
33840;SDS011;20142;28.494;-16.312;2022-07-29T15:39:24;11.75;;;3.10;;
33840;SDS011;20142;28.494;-16.312;2022-07-29T15:44:25;20.25;;;4.30;;
33840;SDS011;20142;28.494;-16.312;2022-07-29T15:49:38;18.30;;;3.47;;
33840;SDS011;20142;28.494;-16.312;2022-07-29T15:54:40;14.68;;;3.08;;
33840;SDS011;20142;28.494;-16.312;2022-07-29T15:59:42;20.92;;;4.35;;
33840;SDS011;20142;28.494;-16.312;2022-07-29T16:04:44;19.02;;;4.38;;
33840;SDS011;20142;28.494;-16.312;2022-07-29T16:09:46;21.27;;;3.67;;
33840;SDS011;20142;28.494;-16.312;2022-07-29T16:14:48;19.73;;;3.70;;
33840;SDS011;20142;28.494;-16.312;2022-07-29T16:19:51;17.95;;;3.78;;
33840;SDS011;20142;28.494;-16.312;2022-07-29T16:24:53;23.15;;;4.97;;
33840;SDS011;20142;28.494;-16.312;2022-07-29T16:29:55;15.40;;;3.95;;
33840;SDS011;20142;28.494;-16.312;2022-07-29T16:34:57;23.50;;;3.70;;
33840;SDS011;20142;28.494;-16.312;2022-07-29T16:40:02;17.17;;;3.47;;
33840;SDS011;20142;28.494;-16.312;2022-07-29T16:45:05;16.88;;;3.60;;
33840;SDS011;20142;28.494;-16.312;2022-07-29T16:50:07;22.30;;;3.92;;
33840;SDS011;20142;28.494;-16.312;2022-07-29T16:55:09;18.77;;;3.50;;
33840;SDS011;20142;28.494;-16.312;2022-07-29T17:00:11;11.50;;;2.60;;
33840;SDS011;20142;28.494;-16.312;2022-07-29T17:05:14;14.73;;;2.78;;
33840;SDS011;20142;28.494;-16.312;2022-07-29T17:10:16;15.07;;;3.22;;
33840;SDS011;20142;28.494;-16.312;2022-07-29T17:15:20;12.70;;;3.17;;
33840;SDS011;20142;28.494;-16.312;2022-07-29T17:20:22;16.38;;;3.80;;
33840;SDS011;20142;28.494;-16.312;2022-07-29T17:25:26;12.50;;;3.35;;
33840;SDS011;20142;28.494;-16.312;2022-07-29T17:30:28;19.55;;;3.97;;
33840;SDS011;20142;28.494;-16.312;2022-07-29T17:35:30;17.35;;;3.65;;
33840;SDS011;20142;28.494;-16.312;2022-07-29T17:40:50;20.95;;;3.90;;
33840;SDS011;20142;28.494;-16.312;2022-07-29T17:45:52;13.43;;;3.50;;
33840;SDS011;20142;28.494;-16.312;2022-07-29T17:50:54;10.82;;;2.85;;
33840;SDS011;20142;28.494;-16.312;2022-07-29T17:55:56;16.05;;;3.58;;
33840;SDS011;20142;28.494;-16.312;2022-07-29T18:00:59;16.77;;;3.42;;
33840;SDS011;20142;28.494;-16.312;2022-07-29T18:06:01;12.90;;;3.40;;
33840;SDS011;20142;28.494;-16.312;2022-07-29T18:11:03;9.55;;;3.47;;
33840;SDS011;20142;28.494;-16.312;2022-07-29T18:16:05;14.35;;;3.00;;
33840;SDS011;20142;28.494;-16.312;2022-07-29T18:21:11;10.65;;;3.30;;
33840;SDS011;20142;28.494;-16.312;2022-07-29T18:26:13;12.13;;;3.38;;
33840;SDS011;20142;28.494;-16.312;2022-07-29T18:31:14;14.07;;;3.75;;
33840;SDS011;20142;28.494;-16.312;2022-07-29T18:36:16;16.92;;;3.55;;
33840;SDS011;20142;28.494;-16.312;2022-07-29T18:41:18;14.18;;;3.88;;
33840;SDS011;20142;28.494;-16.312;2022-07-29T18:46:20;15.10;;;3.88;;
33840;SDS011;20142;28.494;-16.312;2022-07-29T18:51:22;18.05;;;4.00;;
33840;SDS011;20142;28.494;-16.312;2022-07-29T18:56:24;18.90;;;4.32;;
33840;SDS011;20142;28.494;-16.312;2022-07-29T19:01:26;16.83;;;5.10;;
33840;SDS011;20142;28.494;-16.312;2022-07-29T19:06:28;28.40;;;5.35;;
33840;SDS011;20142;28.494;-16.312;2022-07-29T19:11:30;13.82;;;4.38;;
33840;SDS011;20142;28.494;-16.312;2022-07-29T19:16:32;12.32;;;4.40;;
33840;SDS011;20142;28.494;-16.312;2022-07-29T19:21:34;17.42;;;5.15;;
33840;SDS011;20142;28.494;-16.312;2022-07-29T19:26:36;26.23;;;6.28;;
33840;SDS011;20142;28.494;-16.312;2022-07-29T19:31:43;25.92;;;6.60;;
33840;SDS011;20142;28.494;-16.312;2022-07-29T19:36:45;20.00;;;5.60;;
33840;SDS011;20142;28.494;-16.312;2022-07-29T19:41:47;24.48;;;5.80;;
33840;SDS011;20142;28.494;-16.312;2022-07-29T19:46:49;26.77;;;5.43;;
33840;SDS011;20142;28.494;-16.312;2022-07-29T19:51:51;16.90;;;4.93;;
33840;SDS011;20142;28.494;-16.312;2022-07-29T19:56:53;21.83;;;5.00;;
33840;SDS011;20142;28.494;-16.312;2022-07-29T20:01:55;19.95;;;4.97;;
33840;SDS011;20142;28.494;-16.312;2022-07-29T20:06:57;14.00;;;4.10;;
33840;SDS011;20142;28.494;-16.312;2022-07-29T20:12:00;20.90;;;4.88;;
33840;SDS011;20142;28.494;-16.312;2022-07-29T20:17:04;17.73;;;5.00;;
33840;SDS011;20142;28.494;-16.312;2022-07-29T20:22:06;27.88;;;5.80;;
33840;SDS011;20142;28.494;-16.312;2022-07-29T20:27:08;22.05;;;5.30;;
33840;SDS011;20142;28.494;-16.312;2022-07-29T20:32:10;18.77;;;5.05;;
33840;SDS011;20142;28.494;-16.312;2022-07-29T20:37:12;18.63;;;4.80;;
33840;SDS011;20142;28.494;-16.312;2022-07-29T20:42:16;19.23;;;4.57;;
33840;SDS011;20142;28.494;-16.312;2022-07-29T20:47:18;12.60;;;4.43;;
33840;SDS011;20142;28.494;-16.312;2022-07-29T20:52:23;17.77;;;5.03;;
33840;SDS011;20142;28.494;-16.312;2022-07-29T20:57:25;15.90;;;4.60;;
33840;SDS011;20142;28.494;-16.312;2022-07-29T21:02:27;17.10;;;5.15;;
33840;SDS011;20142;28.494;-16.312;2022-07-29T21:07:29;17.33;;;5.50;;
33840;SDS011;20142;28.494;-16.312;2022-07-29T21:12:31;14.52;;;4.82;;
33840;SDS011;20142;28.494;-16.312;2022-07-29T21:17:33;17.70;;;4.57;;
33840;SDS011;20142;28.494;-16.312;2022-07-29T21:22:35;19.95;;;4.65;;
33840;SDS011;20142;28.494;-16.312;2022-07-29T21:27:37;17.42;;;4.28;;
33840;SDS011;20142;28.494;-16.312;2022-07-29T21:32:57;19.23;;;4.38;;
33840;SDS011;20142;28.494;-16.312;2022-07-29T21:38:00;15.63;;;4.15;;
33840;SDS011;20142;28.494;-16.312;2022-07-29T21:43:02;18.67;;;5.00;;
33840;SDS011;20142;28.494;-16.312;2022-07-29T21:48:05;18.77;;;5.22;;
33840;SDS011;20142;28.494;-16.312;2022-07-29T21:53:07;23.17;;;5.30;;
33840;SDS011;20142;28.494;-16.312;2022-07-29T21:58:09;22.63;;;5.60;;
33840;SDS011;20142;28.494;-16.312;2022-07-29T22:03:11;23.20;;;5.50;;
33840;SDS011;20142;28.494;-16.312;2022-07-29T22:08:13;18.58;;;5.53;;
33840;SDS011;20142;28.494;-16.312;2022-07-29T22:13:15;20.08;;;5.18;;
33840;SDS011;20142;28.494;-16.312;2022-07-29T22:18:17;14.43;;;4.35;;
33840;SDS011;20142;28.494;-16.312;2022-07-29T22:23:19;15.07;;;4.05;;
33840;SDS011;20142;28.494;-16.312;2022-07-29T22:28:21;14.68;;;4.50;;
33840;SDS011;20142;28.494;-16.312;2022-07-29T22:33:23;19.73;;;4.20;;
33840;SDS011;20142;28.494;-16.312;2022-07-29T22:38:25;13.60;;;3.72;;
33840;SDS011;20142;28.494;-16.312;2022-07-29T22:43:26;15.48;;;3.55;;
33840;SDS011;20142;28.494;-16.312;2022-07-29T22:48:28;13.77;;;3.75;;
33840;SDS011;20142;28.494;-16.312;2022-07-29T22:53:30;15.57;;;3.33;;
33840;SDS011;20142;28.494;-16.312;2022-07-29T22:58:32;16.60;;;4.05;;
33840;SDS011;20142;28.494;-16.312;2022-07-29T23:03:34;18.05;;;4.40;;
33840;SDS011;20142;28.494;-16.312;2022-07-29T23:08:37;15.90;;;3.90;;
33840;SDS011;20142;28.494;-16.312;2022-07-29T23:13:39;15.63;;;3.92;;
33840;SDS011;20142;28.494;-16.312;2022-07-29T23:18:41;11.90;;;3.63;;
33840;SDS011;20142;28.494;-16.312;2022-07-29T23:23:43;13.32;;;4.35;;
33840;SDS011;20142;28.494;-16.312;2022-07-29T23:28:45;19.65;;;3.97;;
33840;SDS011;20142;28.494;-16.312;2022-07-29T23:33:47;14.20;;;3.67;;
33840;SDS011;20142;28.494;-16.312;2022-07-29T23:38:49;17.77;;;4.35;;
33840;SDS011;20142;28.494;-16.312;2022-07-29T23:43:51;13.85;;;3.63;;
33840;SDS011;20142;28.494;-16.312;2022-07-29T23:48:52;16.55;;;3.90;;
33840;SDS011;20142;28.494;-16.312;2022-07-29T23:53:54;22.45;;;5.07;;
33840;SDS011;20142;28.494;-16.312;2022-07-29T23:58:56;22.40;;;4.68;;
